Villa del Salvador, Argentina
Current Conditions -  °F | °C
As of 1:00 AM on Saturday 20 Dec 2014 (Local Time) from SAME Reporting Station
Thunderstorm Thunderstorm  
Wind Chill: 79°   Ceiling: Unl
Heat Index: 79°   Visibility: 6mi
Dew Point: 36°   Wind: 8mph
Humidity: 21%   Direction: 360°N
Pressure: 29.5"   Gusts: NA
Location:  31.45°S, 68.41°W
Report Text: SAME 200400Z 36007KT 9999 VCTS FEW040FEW045CB 26/02 Q0999
Loading
Personal Weather Stations






























Interactive Weather Map New forecast layout! Learn more

10-Day Weather Forecast

Advertisements
Track Severe Weather on mobile